Time;durP1;ratioP1;P1;durP2;ratioP2;P2;SDS_P1;SDS_P2;PMS_P1;PMS_P2;Temp;Humidity;BMP_temperature;BMP_pressure;BME280_temperature;BME280_humidity;BME280_pressure;Samples;Min_cycle;Max_cycle;Signal;HPM_P1;HPM_P2
2022/01/20 00:04:12;;;;;;;12.68;9.93;;;;;;;2.19;100.00;99173.06;5032284;28;20388;-79
2022/01/20 00:28:45;;;;;;;11.93;9.55;;;;;;;2.38;100.00;99166.66;4990293;28;20121;-79
2022/01/20 00:34:14;;;;;;;13.30;9.65;;;;;;;2.33;100.00;99155.66;4990103;28;20473;-79
2022/01/20 00:39:25;;;;;;;11.52;9.13;;;;;;;2.38;100.00;99171.81;4990449;28;20392;-80
2022/01/20 00:41:51;;;;;;;13.45;9.73;;;;;;;2.39;100.00;99170.09;4990177;28;20039;-79
2022/01/20 00:44:16;;;;;;;13.50;9.80;;;;;;;2.40;100.00;99174.34;4989834;28;20050;-79
2022/01/20 00:46:42;;;;;;;13.55;9.98;;;;;;;2.41;100.00;99171.75;4990087;28;20036;-79
2022/01/20 00:49:07;;;;;;;12.77;10.10;;;;;;;2.31;100.00;99139.41;4989624;28;20026;-80
2022/01/20 00:51:33;;;;;;;13.93;10.25;;;;;;;2.33;100.00;99145.38;4990325;28;20049;-80
2022/01/20 00:53:58;;;;;;;12.45;10.30;;;;;;;2.36;100.00;99157.28;4989825;28;20050;-80
2022/01/20 00:56:23;;;;;;;14.32;10.27;;;;;;;2.39;100.00;99163.22;4989643;28;20046;-80
2022/01/20 00:58:49;;;;;;;12.85;9.85;;;;;;;2.43;100.00;99169.13;4989892;28;20034;-80
2022/01/20 01:01:14;;;;;;;13.05;9.88;;;;;;;2.40;100.00;99143.50;4989768;28;20034;-79
2022/01/20 01:03:40;;;;;;;13.02;10.73;;;;;;;2.39;100.00;99160.66;5003388;28;20123;-80
2022/01/20 01:08:49;;;;;;;11.10;9.10;;;;;;;2.42;100.00;99149.47;5031733;28;20037;-80
2022/01/20 01:11:15;;;;;;;13.90;9.50;;;;;;;2.42;100.00;99152.03;5031433;28;20064;-80
2022/01/20 01:13:40;;;;;;;12.88;9.60;;;;;;;2.38;100.00;99140.97;5009111;28;20561;-79
2022/01/20 01:16:09;;;;;;;12.43;9.25;;;;;;;2.35;100.00;99137.63;5009045;28;20116;-80
2022/01/20 01:24:03;;;;;;;10.05;8.32;;;;;;;2.40;100.00;99139.22;5012659;28;20037;-80
2022/01/20 01:26:29;;;;;;;10.30;8.80;;;;;;;2.37;100.00;99135.88;5013138;28;20470;-79
2022/01/20 01:28:57;;;;;;;10.65;8.50;;;;;;;2.27;100.00;99109.50;5013088;28;20062;-79
2022/01/20 01:31:36;;;;;;;10.63;8.27;;;;;;;2.39;100.00;99136.66;5012771;28;20074;-80
2022/01/20 01:34:09;;;;;;;10.70;8.40;;;;;;;2.20;100.00;99102.84;4996212;28;20547;-79
2022/01/20 01:37:04;;;;;;;9.15;7.78;;;;;;;2.36;100.00;99131.59;5013055;28;20100;-79
2022/01/20 01:39:30;;;;;;;10.02;8.50;;;;;;;2.32;100.00;99115.41;5012906;28;20045;-79
2022/01/20 01:41:57;;;;;;;10.02;7.97;;;;;;;2.31;100.00;99112.84;5012908;28;20037;-80
2022/01/20 01:44:27;;;;;;;8.23;7.20;;;;;;;2.31;100.00;99108.56;5020737;28;20041;-80
2022/01/20 01:46:53;;;;;;;10.73;7.50;;;;;;;2.24;100.00;99107.03;5033740;28;20094;-79
2022/01/20 01:49:20;;;;;;;10.00;8.30;;;;;;;2.34;100.00;99120.50;5033387;28;20029;-80
2022/01/20 01:51:46;;;;;;;7.90;6.85;;;;;;;2.33;100.00;99108.53;5035136;28;20025;-79
2022/01/20 01:54:13;;;;;;;9.25;7.30;;;;;;;2.25;100.00;99101.00;5033366;28;20033;-79
2022/01/20 01:56:40;;;;;;;9.40;8.40;;;;;;;2.12;100.00;99072.16;5034719;28;20046;-79
2022/01/20 01:59:06;;;;;;;9.38;8.18;;;;;;;2.38;100.00;99115.28;5033327;28;20033;-80
2022/01/20 02:01:35;;;;;;;9.20;7.68;;;;;;;2.34;100.00;99105.09;5032213;28;20038;-79
2022/01/20 02:04:11;;;;;;;9.27;7.20;;;;;;;2.36;100.00;99096.47;5015754;28;20048;-79
2022/01/20 02:20:27;;;;;;;9.15;7.25;;;;;;;2.30;100.00;99070.91;4953764;29;20094;-79
2022/01/20 02:22:53;;;;;;;7.78;6.93;;;;;;;2.37;100.00;99072.47;4953798;29;20039;-79
2022/01/20 02:25:19;;;;;;;9.07;7.82;;;;;;;2.38;100.00;99081.84;4953490;29;20106;-80
2022/01/20 02:27:45;;;;;;;9.40;7.60;;;;;;;2.25;100.00;99053.03;4953555;29;20420;-80
2022/01/20 02:30:11;;;;;;;8.80;7.78;;;;;;;2.31;100.00;99062.31;4953535;29;20089;-80
2022/01/20 02:32:36;;;;;;;8.85;7.18;;;;;;;2.39;100.00;99075.84;4953500;29;20181;-79
2022/01/20 02:35:03;;;;;;;8.80;7.68;;;;;;;2.37;100.00;99062.19;4936905;29;20039;-79
2022/01/20 02:37:29;;;;;;;9.43;8.10;;;;;;;2.35;100.00;99061.34;4937374;28;20031;-80
2022/01/20 02:40:31;;;;;;;8.48;7.40;;;;;;;2.33;100.00;99054.59;4953402;29;20086;-80
2022/01/20 02:45:33;;;;;;;8.25;7.18;;;;;;;2.29;100.00;99034.97;4959776;28;20094;-79
2022/01/20 02:47:58;;;;;;;8.38;7.10;;;;;;;2.30;100.00;99050.34;4972666;28;20411;-79
2022/01/20 02:50:24;;;;;;;8.10;7.20;;;;;;;2.35;100.00;99040.81;4956234;28;20042;-79
2022/01/20 02:52:49;;;;;;;10.10;7.70;;;;;;;2.36;100.00;99039.94;5020516;28;20496;-80
2022/01/20 02:55:15;;;;;;;8.48;6.90;;;;;;;2.35;100.00;99042.53;5033462;28;20061;-79
2022/01/20 02:57:40;;;;;;;7.90;7.10;;;;;;;2.37;100.00;99044.19;5033467;28;20099;-80
2022/01/20 03:00:06;;;;;;;7.85;6.72;;;;;;;2.36;100.00;99039.94;5033436;28;20022;-79
2022/01/20 03:02:32;;;;;;;8.57;6.97;;;;;;;2.36;100.00;99045.09;5032096;28;20132;-80
2022/01/20 03:04:57;;;;;;;8.13;6.75;;;;;;;2.29;100.00;99024.69;5033725;28;20057;-79
2022/01/20 03:07:23;;;;;;;7.85;7.03;;;;;;;2.36;100.00;99044.22;5032080;28;20025;-79
2022/01/20 03:09:48;;;;;;;7.03;6.30;;;;;;;2.37;100.00;99040.78;5032229;28;20037;-79
2022/01/20 03:12:14;;;;;;;6.90;6.20;;;;;;;2.37;100.00;99045.94;5033169;28;20029;-79
2022/01/20 03:14:39;;;;;;;7.13;6.43;;;;;;;2.36;100.00;99034.81;5032191;28;20496;-80
2022/01/20 03:17:04;;;;;;;9.13;7.10;;;;;;;2.41;100.00;99034.69;5033327;28;20037;-80
2022/01/20 03:19:31;;;;;;;7.97;6.80;;;;;;;2.35;100.00;99019.41;5031990;28;20112;-79
2022/01/20 03:21:56;;;;;;;8.65;6.90;;;;;;;2.39;100.00;99044.16;5032159;28;20036;-79
2022/01/20 03:24:22;;;;;;;7.22;6.53;;;;;;;2.40;100.00;99041.56;5033279;28;20029;-79
2022/01/20 03:26:47;;;;;;;7.97;6.30;;;;;;;2.38;100.00;99037.31;5033206;28;20053;-80
2022/01/20 03:29:13;;;;;;;8.13;6.90;;;;;;;2.40;100.00;99040.69;5031563;28;20482;-79
2022/01/20 03:31:38;;;;;;;7.40;6.70;;;;;;;2.39;100.00;99037.28;5032838;28;20167;-80
2022/01/20 03:34:04;;;;;;;8.23;7.07;;;;;;;2.41;100.00;99042.41;5031685;28;20035;-80
2022/01/20 03:36:30;;;;;;;8.02;6.35;;;;;;;2.39;100.00;99034.72;5032886;28;20033;-79
2022/01/20 03:38:55;;;;;;;8.15;6.60;;;;;;;2.38;100.00;99033.03;5032576;28;20545;-79
2022/01/20 03:41:21;;;;;;;7.75;6.63;;;;;;;2.33;100.00;99023.75;5031296;28;20021;-79
2022/01/20 03:43:47;;;;;;;7.03;6.32;;;;;;;2.30;100.00;99034.94;5031600;28;20037;-80
2022/01/20 03:46:13;;;;;;;8.43;7.10;;;;;;;2.40;100.00;99035.56;5031573;28;20083;-79
2022/01/20 03:48:56;;;;;;;7.40;6.60;;;;;;;2.43;100.00;99056.06;5031596;28;20568;-80
2022/01/20 03:51:25;;;;;;;7.78;6.15;;;;;;;2.31;100.00;99022.91;5031284;28;20107;-79
2022/01/20 03:53:54;;;;;;;7.20;5.75;;;;;;;2.35;100.00;99034.81;5032677;28;20029;-80
2022/01/20 03:56:21;;;;;;;5.85;4.72;;;;;;;2.31;100.00;99052.03;5032446;28;20107;-79
2022/01/20 03:58:47;;;;;;;7.55;5.07;;;;;;;2.28;100.00;99039.28;5032488;28;20017;-80
2022/01/20 04:01:14;;;;;;;7.20;5.10;;;;;;;2.23;100.00;99034.25;5032475;28;20194;-79
2022/01/20 04:03:40;;;;;;;5.82;4.25;;;;;;;2.23;100.00;99033.38;5032590;28;20366;-79
2022/01/20 04:06:06;;;;;;;7.38;4.43;;;;;;;2.11;100.00;99028.53;5032761;28;20041;-80
2022/01/20 04:08:37;;;;;;;5.97;3.63;;;;;;;1.95;100.00;99015.19;5032204;28;20026;-79
2022/01/20 04:11:04;;;;;;;;;;;;;;;2.00;100.00;99047.56;5032812;28;20029;-79
2022/01/20 04:13:31;;;;;;;6.85;4.25;;;;;;;1.94;100.00;99047.72;5031889;28;19913;-79
2022/01/20 04:16:03;;;;;;;7.07;4.55;;;;;;;1.88;100.00;99039.28;5031077;28;20033;-79
2022/01/20 04:18:29;;;;;;;6.57;4.78;;;;;;;1.72;100.00;99024.19;5030777;28;20038;-79
2022/01/20 04:20:55;;;;;;;6.03;4.28;;;;;;;1.87;100.00;99046.16;5032185;28;20033;-79
2022/01/20 04:23:20;;;;;;;6.65;4.90;;;;;;;1.87;100.00;99053.00;5030737;28;20044;-79
2022/01/20 04:25:46;;;;;;;6.22;5.05;;;;;;;1.84;100.00;99047.94;5032083;28;20380;-79
2022/01/20 04:28:11;;;;;;;7.00;4.15;;;;;;;1.83;100.00;99036.81;5032080;28;20032;-80
2022/01/20 04:30:37;;;;;;;6.18;5.25;;;;;;;1.88;100.00;99054.69;5030844;28;20083;-80
2022/01/20 04:33:03;;;;;;;7.90;4.85;;;;;;;1.91;100.00;99039.25;5009582;28;20136;-79
2022/01/20 04:35:29;;;;;;;10.05;4.68;;;;;;;1.83;100.00;99039.38;5009565;28;20046;-79
2022/01/20 04:37:56;;;;;;;9.38;5.10;;;;;;;1.73;100.00;99031.03;4993214;28;20046;-79
2022/01/20 04:40:22;;;;;;;11.63;4.90;;;;;;;1.62;100.00;99021.88;5009426;28;20537;-80
2022/01/20 04:42:49;;;;;;;10.98;5.25;;;;;;;1.68;100.00;99043.09;5009714;28;20057;-79
2022/01/20 04:45:22;;;;;;;10.43;4.60;;;;;;;1.70;100.00;99045.66;5009552;28;20662;-79
2022/01/20 04:48:13;;;;;;;13.18;5.25;;;;;;;1.80;100.00;99056.56;4993178;28;20486;-79
2022/01/20 04:58:50;;;;;;;12.90;4.18;;;;;;;1.98;100.00;99059.63;5015084;28;20095;-79
2022/01/20 05:01:16;;;;;;;11.68;4.82;;;;;;;2.04;100.00;99058.63;4999417;28;20549;-79
2022/01/20 05:03:43;;;;;;;13.90;4.20;;;;;;;2.00;100.00;99042.44;5024189;28;20049;-79
2022/01/20 05:06:09;;;;;;;10.95;4.47;;;;;;;1.95;100.00;99028.03;5037177;28;20396;-79
2022/01/20 05:08:34;;;;;;;10.00;4.55;;;;;;;2.00;100.00;99049.31;5038174;28;20037;-79
2022/01/20 05:11:02;;;;;;;12.07;4.25;;;;;;;2.00;100.00;99050.16;5038331;28;20021;-79
2022/01/20 05:13:33;;;;;;;13.43;4.82;;;;;;;1.85;100.00;99029.91;5036638;28;20029;-79
2022/01/20 05:16:00;;;;;;;11.20;4.47;;;;;;;1.91;100.00;99036.66;5038502;28;20429;-80
2022/01/20 05:18:25;;;;;;;10.88;4.40;;;;;;;1.98;100.00;99054.50;5038206;28;20032;-79
2022/01/20 05:20:51;;;;;;;16.60;4.25;;;;;;;1.92;100.00;99051.19;5038345;28;20034;-79
2022/01/20 05:23:17;;;;;;;12.75;3.92;;;;;;;1.82;100.00;99036.88;5038167;28;20025;-80
2022/01/20 05:25:43;;;;;;;10.93;3.70;;;;;;;1.91;100.00;99039.25;5036959;28;20048;-79
2022/01/20 05:28:08;;;;;;;7.38;4.07;;;;;;;1.83;100.00;99046.25;5036871;28;20033;-80
2022/01/20 05:30:34;;;;;;;14.98;3.78;;;;;;;1.93;100.00;99056.28;5036763;28;20106;-79
2022/01/20 05:33:00;;;;;;;15.95;4.07;;;;;;;1.92;100.00;99067.44;5038305;28;20029;-80
2022/01/20 05:35:29;;;;;;;14.05;6.57;;;;;;;1.86;100.00;99047.03;5037837;28;20030;-79
2022/01/20 05:37:54;;;;;;;10.82;4.32;;;;;;;1.83;100.00;99044.53;5038045;28;20502;-80
2022/01/20 05:40:20;;;;;;;10.75;3.40;;;;;;;1.80;100.00;99061.72;5037950;28;20033;-79
2022/01/20 05:42:46;;;;;;;16.05;3.85;;;;;;;1.82;100.00;99063.38;5036777;28;20071;-79
2022/01/20 05:45:14;;;;;;;13.40;3.55;;;;;;;1.80;100.00;99049.72;5038012;28;20064;-79
2022/01/20 05:47:46;;;;;;;10.73;3.88;;;;;;;1.77;100.00;99051.50;5036578;28;20025;-79
2022/01/20 05:50:16;;;;;;;14.13;3.65;;;;;;;1.70;100.00;99053.38;5038022;28;20057;-80
2022/01/20 05:52:42;;;;;;;8.63;3.10;;;;;;;1.62;100.00;99061.22;5038011;28;20483;-79
2022/01/20 05:55:10;;;;;;;11.35;4.55;;;;;;;1.43;100.00;99037.66;5037846;28;20061;-80
2022/01/20 05:57:36;;;;;;;14.85;4.30;;;;;;;1.41;100.00;99043.66;5037375;28;20517;-80
2022/01/20 06:00:05;;;;;;;15.52;3.70;;;;;;;1.37;100.00;99050.56;5015614;28;20033;-79
2022/01/20 06:02:36;;;;;;;10.80;3.83;;;;;;;1.25;100.00;99043.09;4999020;28;20038;-80
2022/01/20 06:05:02;;;;;;;;;;;;;;;1.25;100.00;99053.38;5016660;28;20418;-79
2022/01/20 06:07:28;;;;;;;7.40;3.05;;;;;;;1.07;100.00;99039.16;4999375;28;19941;-79
2022/01/20 06:09:54;;;;;;;16.17;4.38;;;;;;;1.04;100.00;99054.59;4996351;28;20382;-80
2022/01/20 06:12:20;;;;;;;15.60;4.97;;;;;;;1.11;100.00;99061.31;5012537;28;20054;-79
2022/01/20 06:14:45;;;;;;;12.73;4.13;;;;;;;1.07;100.00;99059.69;4999011;28;20092;-79
2022/01/20 06:17:12;;;;;;;6.10;2.70;;;;;;;1.03;100.00;99052.06;5032213;28;20033;-79
2022/01/20 06:19:37;;;;;;;11.77;2.95;;;;;;;0.99;100.00;99039.28;5031855;28;20051;-79
2022/01/20 06:22:03;;;;;;;8.00;2.92;;;;;;;0.94;100.00;99040.25;5031940;28;20112;-79
2022/01/20 06:24:28;;;;;;;7.15;3.03;;;;;;;0.85;100.00;99048.13;4992094;28;20456;-79
2022/01/20 06:26:54;;;;;;;9.18;2.80;;;;;;;0.85;100.00;99054.09;4992878;28;20069;-80
2022/01/20 06:29:20;;;;;;;6.63;2.95;;;;;;;0.84;100.00;99048.97;4992199;28;20042;-80
2022/01/20 06:31:45;;;;;;;12.10;2.65;;;;;;;0.78;100.00;99038.81;4992215;28;20455;-80
2022/01/20 06:34:11;;;;;;;9.55;3.03;;;;;;;0.74;100.00;99015.81;4992090;28;20492;-80
2022/01/20 06:36:36;;;;;;;9.13;3.28;;;;;;;0.64;100.00;99010.88;4992083;28;20077;-80
2022/01/20 06:39:02;;;;;;;11.13;3.65;;;;;;;0.66;100.00;99016.81;4992181;28;20399;-80
2022/01/20 06:41:33;;;;;;;11.15;3.15;;;;;;;0.61;100.00;98993.81;4991922;28;20034;-79
2022/01/20 06:43:59;;;;;;;10.73;3.63;;;;;;;0.58;100.00;99006.69;4992148;28;20049;-80
2022/01/20 06:46:24;;;;;;;10.15;3.15;;;;;;;0.56;100.00;99010.16;4992039;28;20034;-79
2022/01/20 06:48:51;;;;;;;10.57;3.50;;;;;;;0.50;100.00;99001.66;4992266;28;20493;-79
2022/01/20 06:51:18;;;;;;;11.05;3.25;;;;;;;0.55;100.00;99022.13;4992056;28;20039;-80
2022/01/20 06:53:43;;;;;;;8.77;3.45;;;;;;;0.44;100.00;98993.25;4991640;28;20517;-79
2022/01/20 06:56:09;;;;;;;10.30;3.30;;;;;;;0.53;100.00;99008.47;5019027;28;20050;-79
2022/01/20 06:58:34;;;;;;;13.93;3.80;;;;;;;0.52;100.00;98993.13;5033723;28;20413;-79
2022/01/20 07:01:00;;;;;;;11.63;3.17;;;;;;;0.65;100.00;98997.19;5033652;28;20041;-77
2022/01/20 07:03:25;;;;;;;11.15;3.33;;;;;;;0.77;100.00;98991.84;5033561;28;20029;-77
2022/01/20 07:05:50;;;;;;;13.90;3.58;;;;;;;0.91;100.00;98978.78;5033688;28;20104;-76
2022/01/20 07:08:16;;;;;;;13.32;3.53;;;;;;;1.11;100.00;98980.97;5033499;28;20021;-77
2022/01/20 07:10:41;;;;;;;12.15;3.42;;;;;;;1.15;100.00;98951.81;5033785;28;20087;-77
2022/01/20 07:13:07;;;;;;;16.80;4.28;;;;;;;1.35;100.00;98965.09;5033904;28;20108;-76
2022/01/20 07:15:32;;;;;;;11.55;3.80;;;;;;;1.35;100.00;98952.28;5033294;28;20043;-76
2022/01/20 07:17:58;;;;;;;16.40;3.42;;;;;;;1.45;100.00;98958.06;5033535;28;20443;-76
2022/01/20 07:20:23;;;;;;;12.70;3.92;;;;;;;1.41;100.00;98946.16;5033009;28;20040;-79
2022/01/20 07:22:49;;;;;;;11.60;3.67;;;;;;;1.57;100.00;98968.06;5033714;28;20061;-79
2022/01/20 07:25:14;;;;;;;13.93;4.75;;;;;;;1.54;100.00;98959.59;5033501;28;20029;-79
2022/01/20 07:27:40;;;;;;;17.55;4.18;;;;;;;1.65;100.00;98973.03;5033143;28;20045;-79
2022/01/20 07:30:06;;;;;;;15.18;4.88;;;;;;;1.65;100.00;98958.47;5033115;28;20032;-79
2022/01/20 07:32:31;;;;;;;17.83;4.90;;;;;;;1.68;100.00;98949.84;5031389;28;20025;-79
2022/01/20 07:34:57;;;;;;;20.30;5.25;;;;;;;1.75;100.00;98957.38;5031770;28;20036;-79
2022/01/20 07:37:22;;;;;;;14.32;4.70;;;;;;;1.76;100.00;98958.22;5031569;28;20071;-79
2022/01/20 07:39:47;;;;;;;16.58;4.53;;;;;;;1.85;100.00;98960.59;5033213;28;20443;-79
2022/01/20 07:42:13;;;;;;;16.13;5.13;;;;;;;1.85;100.00;98954.63;5033040;28;20049;-79
2022/01/20 07:44:38;;;;;;;18.17;5.45;;;;;;;1.88;100.00;98946.84;5033117;28;20037;-79
2022/01/20 07:47:05;;;;;;;13.13;4.93;;;;;;;1.98;100.00;98935.47;5031682;28;20033;-79
2022/01/20 07:49:30;;;;;;;20.02;6.43;;;;;;;1.87;100.00;98915.19;5031303;28;20060;-79
2022/01/20 07:51:57;;;;;;;15.77;5.60;;;;;;;2.00;100.00;98932.00;5032548;28;20483;-79
2022/01/20 07:54:22;;;;;;;20.52;5.43;;;;;;;2.06;100.00;98958.41;5029801;28;20046;-79
2022/01/20 07:56:49;;;;;;;17.40;6.50;;;;;;;1.93;100.00;98945.00;5027102;28;20041;-79
2022/01/20 07:59:17;;;;;;;18.27;6.65;;;;;;;2.04;100.00;98968.75;5013583;28;20221;-79
2022/01/20 08:01:43;;;;;;;19.42;6.30;;;;;;;1.80;100.00;98946.19;5029945;28;20025;-79
2022/01/20 08:04:08;;;;;;;23.50;5.50;;;;;;;1.74;100.00;98985.69;5030082;28;20409;-79
2022/01/20 08:06:34;;;;;;;21.65;8.68;;;;;;;1.52;100.00;99031.47;5030066;28;20540;-79
2022/01/20 08:08:59;;;;;;;10.32;5.05;;;;;;;1.45;100.00;99032.47;5030209;28;20065;-79
2022/01/20 08:11:26;;;;;;;9.88;6.07;;;;;;;1.27;100.00;99028.53;5029661;28;20184;-79
2022/01/20 08:13:55;;;;;;;5.70;3.60;;;;;;;1.03;100.00;99016.16;5039947;28;20053;-79
2022/01/20 08:16:23;;;;;;;7.53;4.32;;;;;;;1.15;100.00;99036.47;5049308;28;20120;-79
2022/01/20 08:18:53;;;;;;;7.75;3.72;;;;;;;1.07;100.00;99025.50;5032793;28;20104;-79
2022/01/20 08:21:19;;;;;;;4.97;2.00;;;;;;;1.08;100.00;99012.63;5049599;28;20148;-79
2022/01/20 08:23:45;;;;;;;8.02;4.70;;;;;;;1.01;100.00;99005.91;5032650;28;20385;-79
2022/01/20 08:26:13;;;;;;;16.25;7.45;;;;;;;0.84;100.00;99013.91;5051656;28;20058;-79
2022/01/20 08:28:40;;;;;;;16.42;8.10;;;;;;;0.91;100.00;99018.06;5051880;28;20041;-79
2022/01/20 08:31:06;;;;;;;17.25;7.18;;;;;;;0.98;100.00;99053.00;5050741;28;20490;-79
2022/01/20 08:33:31;;;;;;;23.30;12.77;;;;;;;0.87;100.00;99048.91;5049912;28;20112;-79
2022/01/20 08:35:57;;;;;;;42.60;19.75;;;;;;;0.94;100.00;99053.91;5042847;28;20021;-79
2022/01/20 08:38:24;;;;;;;27.45;13.05;;;;;;;0.99;100.00;99052.13;5048183;28;20068;-79
2022/01/20 08:40:49;;;;;;;19.27;8.60;;;;;;;0.92;100.00;99053.09;5031388;28;20025;-79
2022/01/20 08:43:15;;;;;;;23.95;8.85;;;;;;;0.77;100.00;99037.16;5035667;28;20024;-79
2022/01/20 08:45:43;;;;;;;20.02;8.60;;;;;;;0.87;100.00;99054.03;5050265;28;20063;-79
2022/01/20 08:48:12;;;;;;;13.48;7.72;;;;;;;0.77;100.00;99040.56;5051757;28;20020;-79
2022/01/20 08:50:39;;;;;;;18.65;9.07;;;;;;;0.90;100.00;99054.00;5051792;28;20028;-79
2022/01/20 08:53:05;;;;;;;25.23;10.75;;;;;;;0.84;100.00;99060.06;5014921;28;20112;-79
2022/01/20 08:55:30;;;;;;;16.15;7.18;;;;;;;0.89;100.00;99060.84;4992669;28;20038;-79
2022/01/20 08:57:58;;;;;;;13.55;5.70;;;;;;;0.90;100.00;99036.06;5007075;28;20070;-79
2022/01/20 09:00:30;;;;;;;16.90;7.18;;;;;;;0.91;100.00;99042.88;5009328;28;20037;-79
2022/01/20 09:02:59;;;;;;;14.75;7.88;;;;;;;1.02;100.00;99070.91;4993029;28;20048;-79
2022/01/20 09:05:39;;;;;;;15.23;7.18;;;;;;;1.03;100.00;99054.63;5007050;28;20046;-78
2022/01/20 09:08:07;;;;;;;12.05;5.78;;;;;;;0.97;100.00;99051.31;5009874;28;20131;-79
2022/01/20 09:10:38;;;;;;;17.50;5.85;;;;;;;0.97;100.00;99058.16;5026856;28;20030;-79
2022/01/20 09:15:54;;;;;;;18.25;7.38;;;;;;;0.89;100.00;99054.88;5009872;28;20080;-79
2022/01/20 09:18:24;;;;;;;10.52;4.28;;;;;;;1.03;100.00;99070.03;5009210;28;20489;-79
2022/01/20 09:21:10;;;;;;;12.63;6.00;;;;;;;0.89;100.00;99095.91;5009383;28;20022;-79
2022/01/20 09:23:36;;;;;;;10.57;4.55;;;;;;;0.62;100.00;99103.13;5014891;28;20236;-79
2022/01/20 09:26:03;;;;;;;9.70;4.00;;;;;;;0.58;100.00;99126.28;5029158;28;20034;-79
2022/01/20 09:28:31;;;;;;;12.02;4.75;;;;;;;0.38;100.00;99134.22;5012674;28;20049;-79
2022/01/20 09:31:00;;;;;;;8.32;3.55;;;;;;;0.24;100.00;99122.47;5028858;28;20099;-78
2022/01/20 09:33:28;;;;;;;6.35;3.40;;;;;;;0.23;100.00;99163.47;5028740;28;20191;-78
2022/01/20 09:35:53;;;;;;;6.50;3.25;;;;;;;0.08;100.00;99145.72;5029015;28;20497;-78
2022/01/20 09:38:19;;;;;;;4.38;2.35;;;;;;;-0.05;100.00;99142.47;5028864;28;20124;-78
2022/01/20 09:40:46;;;;;;;7.85;3.55;;;;;;;-0.06;100.00;99149.31;5028641;28;20096;-78
2022/01/20 09:43:17;;;;;;;5.15;2.85;;;;;;;-0.18;100.00;99154.56;5023361;28;20046;-78
2022/01/20 09:45:50;;;;;;;12.52;5.38;;;;;;;-0.26;100.00;99154.63;4995714;28;20037;-78
2022/01/20 09:48:18;;;;;;;6.60;4.20;;;;;;;-0.21;100.00;99164.84;5013036;28;20121;-78
2022/01/20 09:50:44;;;;;;;9.25;3.67;;;;;;;-0.38;100.00;99141.13;5012672;28;20057;-78
2022/01/20 09:53:10;;;;;;;10.60;4.28;;;;;;;-0.20;100.00;99179.34;4991518;28;20039;-78
2022/01/20 09:55:37;;;;;;;9.00;5.35;;;;;;;-0.19;100.00;99180.19;4992335;28;20101;-78
2022/01/20 09:58:04;;;;;;;7.13;3.40;;;;;;;-0.27;100.00;99168.31;4960554;28;20042;-78
2022/01/20 10:00:31;;;;;;;10.70;5.60;;;;;;;-0.30;100.00;99164.94;4992673;28;20121;-78
2022/01/20 10:03:09;;;;;;;12.88;4.80;;;;;;;-0.43;100.00;99161.66;4976848;28;20575;-78
2022/01/20 10:05:44;;;;;;;13.60;7.60;;;;;;;-0.43;100.00;99171.03;4992704;28;20556;-78
2022/01/20 10:08:13;;;;;;;10.15;4.60;;;;;;;-0.42;100.00;99168.47;4993009;28;20049;-78
2022/01/20 10:10:50;;;;;;;10.03;4.57;;;;;;;-0.28;100.00;99171.72;4992699;28;20404;-78
2022/01/20 10:13:20;;;;;;;8.77;4.20;;;;;;;-0.30;100.00;99149.56;4992814;28;20262;-78
2022/01/20 10:16:15;;;;;;;10.10;4.28;;;;;;;-0.04;100.00;99190.25;4992597;28;20030;-79
2022/01/20 10:18:48;;;;;;;11.77;4.38;;;;;;;0.05;100.00;99189.31;4992462;28;20050;-78
2022/01/20 10:21:16;;;;;;;13.70;5.05;;;;;;;0.12;100.00;99189.19;4976303;28;20564;-79
2022/01/20 10:23:44;;;;;;;10.68;4.10;;;;;;;0.07;100.00;99169.63;4999519;28;20110;-78
2022/01/20 10:26:24;;;;;;;11.00;4.53;;;;;;;0.08;100.00;99161.94;5034417;28;20504;-78
2022/01/20 10:28:55;;;;;;;9.80;5.00;;;;;;;0.40;100.00;99189.72;5034414;28;20033;-79
2022/01/20 10:31:34;;;;;;;8.82;4.13;;;;;;;0.59;100.00;99187.78;5033200;28;20025;-79
2022/01/20 10:34:01;;;;;;;7.22;2.70;;;;;;;0.57;100.00;99180.97;5032930;28;20034;-78
2022/01/20 10:36:26;;;;;;;7.65;3.20;;;;;;;0.50;100.00;99167.38;5033919;28;20048;-78
2022/01/20 10:38:54;;;;;;;10.75;4.32;;;;;;;0.65;100.00;99177.41;5034276;28;20021;-78
2022/01/20 10:41:30;;;;;;;6.70;3.85;;;;;;;0.62;100.00;99168.94;5034323;28;20037;-78
2022/01/20 10:44:16;;;;;;;10.27;3.95;;;;;;;0.80;100.00;99180.63;5045871;28;20031;-78
2022/01/20 10:46:53;;;;;;;8.10;3.95;;;;;;;0.80;100.00;99168.69;5031234;28;20160;-78
2022/01/20 10:49:20;;;;;;;8.52;3.40;;;;;;;0.68;100.00;99144.06;5031697;28;20044;-78
2022/01/20 10:52:09;;;;;;;7.90;3.95;;;;;;;0.67;100.00;99136.38;5031290;28;20066;-78
2022/01/20 10:54:36;;;;;;;7.88;3.83;;;;;;;0.72;100.00;99158.53;5031258;28;20040;-78
2022/01/20 10:57:02;;;;;;;7.63;3.75;;;;;;;0.50;100.00;99139.19;5030140;28;20252;-78
2022/01/20 10:59:28;;;;;;;15.52;6.30;;;;;;;0.47;100.00;99131.56;5014446;28;20069;-78
2022/01/20 11:02:05;;;;;;;11.55;3.95;;;;;;;0.55;100.00;99144.25;5031309;28;20041;-78
2022/01/20 11:04:31;;;;;;;11.07;4.25;;;;;;;0.63;100.00;99162.91;5017441;28;20268;-78
2022/01/20 11:07:01;;;;;;;10.85;4.13;;;;;;;0.69;100.00;99178.22;5024667;28;20100;-79
2022/01/20 11:09:28;;;;;;;9.43;3.70;;;;;;;0.67;100.00;99180.78;4993670;28;20025;-78
2022/01/20 11:11:55;;;;;;;6.40;3.15;;;;;;;0.64;100.00;99167.19;5004961;28;20511;-77
2022/01/20 11:14:21;;;;;;;7.90;3.65;;;;;;;0.46;100.00;99166.59;5030131;28;20473;-78
2022/01/20 11:16:48;;;;;;;11.40;4.32;;;;;;;0.58;100.00;99178.38;5015590;28;20046;-78
2022/01/20 11:19:17;;;;;;;12.68;5.47;;;;;;;0.68;100.00;99179.09;5049662;28;20506;-78
2022/01/20 11:21:44;;;;;;;11.93;5.05;;;;;;;0.67;99.56;99162.84;5030523;28;20037;-77
2022/01/20 11:24:25;;;;;;;10.43;3.45;;;;;;;0.74;98.86;99179.00;5030733;28;20036;-77
2022/01/20 11:26:57;;;;;;;10.27;3.40;;;;;;;0.71;96.96;99167.06;5030784;28;20075;-77
2022/01/20 11:29:38;;;;;;;11.27;3.50;;;;;;;0.58;96.46;99165.56;5030423;28;20026;-77
2022/01/20 11:32:18;;;;;;;9.63;2.70;;;;;;;0.70;95.74;99185.88;5034181;28;20037;-78
2022/01/20 11:35:18;;;;;;;9.52;3.42;;;;;;;0.69;95.18;99186.75;5049861;28;20116;-78
2022/01/20 11:37:57;;;;;;;11.75;3.95;;;;;;;0.54;95.24;99163.06;4936426;29;20404;-78
2022/01/20 11:40:24;;;;;;;8.45;3.33;;;;;;;0.64;95.22;99167.19;4952307;29;20030;-77
2022/01/20 11:43:07;;;;;;;8.75;3.50;;;;;;;0.62;93.89;99151.81;4952392;29;20051;-77
2022/01/20 11:45:35;;;;;;;9.07;3.40;;;;;;;0.65;93.01;99182.53;4932936;29;20718;-77
2022/01/20 11:48:30;;;;;;;7.30;3.13;;;;;;;0.64;92.65;99177.47;4944479;29;20495;-77
2022/01/20 11:51:05;;;;;;;12.57;4.78;;;;;;;0.64;93.85;99165.47;4895318;29;20036;-80
2022/01/20 11:53:30;;;;;;;9.98;4.28;;;;;;;0.65;93.56;99181.69;4885465;29;20040;-77
2022/01/20 11:55:56;;;;;;;6.80;3.70;;;;;;;0.67;93.58;99172.25;4902457;29;20043;-77
2022/01/20 11:58:24;;;;;;;6.25;2.97;;;;;;;0.75;92.95;99178.13;4918526;29;20084;-77
2022/01/20 12:01:08;;;;;;;6.18;3.20;;;;;;;0.75;92.56;99175.56;4898070;29;20058;-77
2022/01/20 12:03:36;;;;;;;10.60;3.97;;;;;;;0.75;93.06;99178.13;4913830;29;20401;-79
2022/01/20 12:06:14;;;;;;;9.05;3.55;;;;;;;0.62;92.15;99140.72;4898114;29;20139;-79
2022/01/20 12:09:00;;;;;;;14.18;4.55;;;;;;;0.88;90.46;99184.75;4896977;29;20044;-79
2022/01/20 12:11:40;;;;;;;14.85;4.47;;;;;;;0.91;90.66;99155.69;4913561;29;20492;-79
2022/01/20 12:14:07;;;;;;;8.75;3.47;;;;;;;1.04;90.85;99187.09;4923343;29;20075;-79
2022/01/20 12:16:35;;;;;;;8.15;3.13;;;;;;;1.11;90.00;99184.44;4935267;28;20609;-79
2022/01/20 12:19:01;;;;;;;5.82;2.60;;;;;;;1.25;88.38;99167.09;4971036;28;20541;-79
2022/01/20 12:21:33;;;;;;;7.18;3.40;;;;;;;1.29;88.35;99167.03;4954487;28;20047;-79
2022/01/20 12:23:59;;;;;;;8.10;3.33;;;;;;;1.32;87.07;99193.50;4971111;28;20043;-79
2022/01/20 12:26:25;;;;;;;9.10;3.70;;;;;;;1.42;87.75;99171.94;4977586;28;20617;-79
2022/01/20 12:29:08;;;;;;;11.30;3.70;;;;;;;1.57;87.40;99157.16;5030435;28;20038;-79
2022/01/20 12:31:56;;;;;;;8.35;3.78;;;;;;;1.63;86.00;99128.78;5031922;28;20477;-79
2022/01/20 12:34:22;;;;;;;8.40;3.20;;;;;;;1.88;85.17;99185.66;5030786;28;20493;-79
2022/01/20 12:36:51;;;;;;;15.98;5.18;;;;;;;1.82;85.32;99163.53;5032045;28;20068;-79
2022/01/20 12:39:28;;;;;;;10.48;3.72;;;;;;;1.80;84.94;99169.56;5032017;28;20113;-79
2022/01/20 12:42:03;;;;;;;10.18;3.33;;;;;;;1.71;84.58;99163.72;5030886;28;20025;-79